sensor_id;sensor_type;location;lat;lon;timestamp;pressure;altitude;pressure_sealevel;temperature;humidity
48527;BME280;34317;51.660;5.824;2023-06-22T00:01:21;101813.22;;;23.31;48.19
48527;BME280;34317;51.660;5.824;2023-06-22T00:03:51;101813.34;;;23.29;48.01
48527;BME280;34317;51.660;5.824;2023-06-22T00:06:18;101807.34;;;23.26;48.38
48527;BME280;34317;51.660;5.824;2023-06-22T00:08:45;101809.31;;;23.24;48.53
48527;BME280;34317;51.660;5.824;2023-06-22T00:11:12;101809.59;;;23.21;48.67
48527;BME280;34317;51.660;5.824;2023-06-22T00:13:39;101806.28;;;23.17;48.63
48527;BME280;34317;51.660;5.824;2023-06-22T00:16:06;101797.56;;;23.13;48.88
48527;BME280;34317;51.660;5.824;2023-06-22T00:18:34;101808.63;;;23.10;48.92
48527;BME280;34317;51.660;5.824;2023-06-22T00:21:01;101810.59;;;23.08;49.21
48527;BME280;34317;51.660;5.824;2023-06-22T00:23:28;101814.25;;;23.07;49.21
48527;BME280;34317;51.660;5.824;2023-06-22T00:25:55;101809.75;;;23.08;49.31
48527;BME280;34317;51.660;5.824;2023-06-22T00:28:22;101812.56;;;23.06;49.24
48527;BME280;34317;51.660;5.824;2023-06-22T00:30:49;101805.44;;;23.05;49.51
48527;BME280;34317;51.660;5.824;2023-06-22T00:33:18;101817.13;;;23.06;49.57
48527;BME280;34317;51.660;5.824;2023-06-22T00:35:45;101805.44;;;23.05;49.42
48527;BME280;34317;51.660;5.824;2023-06-22T00:38:12;101804.56;;;23.05;49.71
48527;BME280;34317;51.660;5.824;2023-06-22T00:40:41;101807.41;;;23.03;49.62
48527;BME280;34317;51.660;5.824;2023-06-22T00:43:08;101803.94;;;23.01;49.67
48527;BME280;34317;51.660;5.824;2023-06-22T00:45:36;101812.03;;;23.01;49.74
48527;BME280;34317;51.660;5.824;2023-06-22T00:48:03;101809.34;;;23.01;49.59
48527;BME280;34317;51.660;5.824;2023-06-22T00:50:33;101807.66;;;23.00;49.73
48527;BME280;34317;51.660;5.824;2023-06-22T00:53:04;101804.22;;;22.98;49.74
48527;BME280;34317;51.660;5.824;2023-06-22T00:55:37;101800.75;;;22.96;49.75
48527;BME280;34317;51.660;5.824;2023-06-22T00:58:06;101801.03;;;22.93;49.87
48527;BME280;34317;51.660;5.824;2023-06-22T01:00:38;101799.28;;;22.92;50.02
48527;BME280;34317;51.660;5.824;2023-06-22T01:03:06;101788.75;;;22.89;50.00
48527;BME280;34317;51.660;5.824;2023-06-22T01:05:37;101797.84;;;22.88;50.12
48527;BME280;34317;51.660;5.824;2023-06-22T01:08:49;101794.63;;;22.83;49.90
48527;BME280;34317;51.660;5.824;2023-06-22T01:11:25;101783.22;;;22.79;50.17
48527;BME280;34317;51.660;5.824;2023-06-22T01:14:18;101779.94;;;22.76;50.15
48527;BME280;34317;51.660;5.824;2023-06-22T01:16:51;101795.66;;;22.70;50.24
48527;BME280;34317;51.660;5.824;2023-06-22T01:19:44;101786.84;;;22.68;50.31
48527;BME280;34317;51.660;5.824;2023-06-22T01:22:16;101787.06;;;22.65;50.60
48527;BME280;34317;51.660;5.824;2023-06-22T01:24:57;101790.78;;;22.64;50.54
48527;BME280;34317;51.660;5.824;2023-06-22T01:30:22;101786.34;;;22.63;50.60
48527;BME280;34317;51.660;5.824;2023-06-22T01:32:54;101784.47;;;22.64;50.66
48527;BME280;34317;51.660;5.824;2023-06-22T01:35:25;101789.03;;;22.63;50.86
48527;BME280;34317;51.660;5.824;2023-06-22T01:37:53;101796.16;;;22.64;50.99
48527;BME280;34317;51.660;5.824;2023-06-22T01:40:21;101791.63;;;22.65;50.83
48527;BME280;34317;51.660;5.824;2023-06-22T01:42:51;101790.78;;;22.64;50.96
48527;BME280;34317;51.660;5.824;2023-06-22T01:45:18;101783.63;;;22.63;50.97
48527;BME280;34317;51.660;5.824;2023-06-22T01:47:46;101774.81;;;22.61;51.16
48527;BME280;34317;51.660;5.824;2023-06-22T01:50:14;101778.75;;;22.57;51.00
48527;BME280;34317;51.660;5.824;2023-06-22T01:52:41;101777.28;;;22.53;51.16
48527;BME280;34317;51.660;5.824;2023-06-22T01:55:08;101777.41;;;22.51;51.29
48527;BME280;34317;51.660;5.824;2023-06-22T01:57:35;101774.69;;;22.51;51.36
48527;BME280;34317;51.660;5.824;2023-06-22T02:00:04;101770.38;;;22.49;51.29
48527;BME280;34317;51.660;5.824;2023-06-22T02:02:59;101777.75;;;22.47;51.38
48527;BME280;34317;51.660;5.824;2023-06-22T02:05:34;101774.31;;;22.45;51.55
48527;BME280;34317;51.660;5.824;2023-06-22T02:08:20;101772.63;;;22.44;51.36
48527;BME280;34317;51.660;5.824;2023-06-22T02:10:49;101776.28;;;22.43;51.32
48527;BME280;34317;51.660;5.824;2023-06-22T02:13:18;101777.41;;;22.40;51.45
48527;BME280;34317;51.660;5.824;2023-06-22T02:15:46;101774.81;;;22.39;51.56
48527;BME280;34317;51.660;5.824;2023-06-22T02:18:14;101772.97;;;22.39;51.71
48527;BME280;34317;51.660;5.824;2023-06-22T02:20:41;101770.28;;;22.39;51.61
48527;BME280;34317;51.660;5.824;2023-06-22T02:23:08;101771.16;;;22.40;51.77
48527;BME280;34317;51.660;5.824;2023-06-22T02:25:35;101771.16;;;22.40;51.75
48527;BME280;34317;51.660;5.824;2023-06-22T02:28:03;101770.16;;;22.41;51.81
48527;BME280;34317;51.660;5.824;2023-06-22T02:30:31;101763.06;;;22.40;51.93
48527;BME280;34317;51.660;5.824;2023-06-22T02:32:59;101762.06;;;22.41;51.84
48527;BME280;34317;51.660;5.824;2023-06-22T02:35:30;101764.03;;;22.39;51.97
48527;BME280;34317;51.660;5.824;2023-06-22T02:38:03;101759.59;;;22.38;51.78
48527;BME280;34317;51.660;5.824;2023-06-22T02:40:31;101756.91;;;22.38;51.94
48527;BME280;34317;51.660;5.824;2023-06-22T02:42:58;101755.19;;;22.37;51.80
48527;BME280;34317;51.660;5.824;2023-06-22T02:45:29;101757.16;;;22.34;51.99
48527;BME280;34317;51.660;5.824;2023-06-22T02:47:57;101749.19;;;22.33;52.10
48527;BME280;34317;51.660;5.824;2023-06-22T02:50:24;101746.72;;;22.30;52.16
48527;BME280;34317;51.660;5.824;2023-06-22T02:52:53;101745.13;;;22.27;52.11
48527;BME280;34317;51.660;5.824;2023-06-22T02:55:21;101748.03;;;22.24;52.29
48527;BME280;34317;51.660;5.824;2023-06-22T02:57:54;101736.78;;;22.19;52.24
48527;BME280;34317;51.660;5.824;2023-06-22T03:00:21;101729.88;;;22.15;52.44
48527;BME280;34317;51.660;5.824;2023-06-22T03:02:49;101737.25;;;22.13;52.42
48527;BME280;34317;51.660;5.824;2023-06-22T03:05:17;101742.03;;;22.09;52.65
48527;BME280;34317;51.660;5.824;2023-06-22T03:07:48;101737.75;;;22.07;52.50
48527;BME280;34317;51.660;5.824;2023-06-22T03:10:16;101741.44;;;22.06;52.66
48527;BME280;34317;51.660;5.824;2023-06-22T03:12:43;101737.97;;;22.04;52.74
48527;BME280;34317;51.660;5.824;2023-06-22T03:15:12;101734.53;;;22.02;52.85
48527;BME280;34317;51.660;5.824;2023-06-22T03:17:40;101734.53;;;22.02;52.75
48527;BME280;34317;51.660;5.824;2023-06-22T03:20:09;101731.72;;;22.03;52.73
48527;BME280;34317;51.660;5.824;2023-06-22T03:22:39;101718.34;;;22.02;52.76
48527;BME280;34317;51.660;5.824;2023-06-22T03:25:07;101711.25;;;22.01;52.76
48527;BME280;34317;51.660;5.824;2023-06-22T03:27:43;101724.97;;;21.97;52.67
48527;BME280;34317;51.660;5.824;2023-06-22T03:30:11;101726.22;;;21.93;52.77
48527;BME280;34317;51.660;5.824;2023-06-22T03:32:39;101721.06;;;21.90;53.02
48527;BME280;34317;51.660;5.824;2023-06-22T03:35:06;101722.28;;;21.86;52.97
48527;BME280;34317;51.660;5.824;2023-06-22T03:37:36;101730.38;;;21.86;53.06
48527;BME280;34317;51.660;5.824;2023-06-22T03:40:03;101720.59;;;21.85;53.12
48527;BME280;34317;51.660;5.824;2023-06-22T03:42:34;101719.59;;;21.86;53.00
48527;BME280;34317;51.660;5.824;2023-06-22T03:45:03;101714.19;;;21.86;53.13
48527;BME280;34317;51.660;5.824;2023-06-22T03:47:30;101712.50;;;21.85;53.07
48527;BME280;34317;51.660;5.824;2023-06-22T03:49:58;101714.44;;;21.83;53.15
48527;BME280;34317;51.660;5.824;2023-06-22T03:52:25;101707.31;;;21.82;52.99
48527;BME280;34317;51.660;5.824;2023-06-22T03:54:52;101709.28;;;21.80;53.14
48527;BME280;34317;51.660;5.824;2023-06-22T03:57:20;101716.66;;;21.78;53.11
48527;BME280;34317;51.660;5.824;2023-06-22T03:59:47;101721.31;;;21.76;53.14
48527;BME280;34317;51.660;5.824;2023-06-22T04:02:14;101716.88;;;21.75;53.07
48527;BME280;34317;51.660;5.824;2023-06-22T04:04:41;101707.19;;;21.72;53.25
48527;BME280;34317;51.660;5.824;2023-06-22T04:07:08;101710.00;;;21.71;53.35
48527;BME280;34317;51.660;5.824;2023-06-22T04:09:36;101707.44;;;21.69;53.40
48527;BME280;34317;51.660;5.824;2023-06-22T04:12:03;101710.25;;;21.68;53.45
48527;BME280;34317;51.660;5.824;2023-06-22T04:14:30;101703.16;;;21.67;53.57
48527;BME280;34317;51.660;5.824;2023-06-22T04:16:58;101706.81;;;21.66;53.64
48527;BME280;34317;51.660;5.824;2023-06-22T04:19:25;101700.69;;;21.64;53.72
48527;BME280;34317;51.660;5.824;2023-06-22T04:21:52;101701.69;;;21.63;54.06
48527;BME280;34317;51.660;5.824;2023-06-22T04:24:19;101699.72;;;21.65;53.98
48527;BME280;34317;51.660;5.824;2023-06-22T04:26:46;101701.41;;;21.66;54.34
48527;BME280;34317;51.660;5.824;2023-06-22T04:29:14;101700.34;;;21.68;54.25
48527;BME280;34317;51.660;5.824;2023-06-22T04:31:41;101706.34;;;21.72;54.45
48527;BME280;34317;51.660;5.824;2023-06-22T04:34:09;101704.13;;;21.77;54.52
48527;BME280;34317;51.660;5.824;2023-06-22T04:36:38;101700.19;;;21.81;54.76
48527;BME280;34317;51.660;5.824;2023-06-22T04:39:10;101704.50;;;21.84;54.69
48527;BME280;34317;51.660;5.824;2023-06-22T04:41:40;101694.34;;;21.87;54.57
48527;BME280;34317;51.660;5.824;2023-06-22T04:44:12;101695.81;;;21.91;54.82
48527;BME280;34317;51.660;5.824;2023-06-22T04:46:40;101698.28;;;21.94;54.95
48527;BME280;34317;51.660;5.824;2023-06-22T04:49:08;101697.03;;;21.99;54.93
48527;BME280;34317;51.660;5.824;2023-06-22T04:51:40;101690.31;;;22.04;55.12
48527;BME280;34317;51.660;5.824;2023-06-22T04:54:09;101696.94;;;22.11;55.21
48527;BME280;34317;51.660;5.824;2023-06-22T04:56:36;101689.91;;;22.20;55.16
48527;BME280;34317;51.660;5.824;2023-06-22T04:59:04;101694.59;;;22.29;55.09
48527;BME280;34317;51.660;5.824;2023-06-22T05:01:31;101695.81;;;22.37;55.11
48527;BME280;34317;51.660;5.824;2023-06-22T05:03:58;101701.44;;;22.45;55.06
48527;BME280;34317;51.660;5.824;2023-06-22T05:06:28;101698.25;;;22.51;55.02
48527;BME280;34317;51.660;5.824;2023-06-22T05:08:56;101705.56;;;22.60;55.05
48527;BME280;34317;51.660;5.824;2023-06-22T05:11:27;101696.97;;;22.66;54.97
48527;BME280;34317;51.660;5.824;2023-06-22T05:13:54;101694.50;;;22.74;54.82
48527;BME280;34317;51.660;5.824;2023-06-22T05:16:26;101704.78;;;22.81;54.94
48527;BME280;34317;51.660;5.824;2023-06-22T05:19:01;101697.16;;;22.86;54.83
48527;BME280;34317;51.660;5.824;2023-06-22T05:21:30;101703.75;;;22.93;54.84
48527;BME280;34317;51.660;5.824;2023-06-22T05:23:58;101701.53;;;22.98;54.89
48527;BME280;34317;51.660;5.824;2023-06-22T05:26:30;101703.75;;;23.04;54.89
48527;BME280;34317;51.660;5.824;2023-06-22T05:28:59;101700.28;;;23.13;55.01
48527;BME280;34317;51.660;5.824;2023-06-22T05:31:27;101710.31;;;23.23;54.81
48527;BME280;34317;51.660;5.824;2023-06-22T05:33:55;101714.94;;;23.32;54.61
48527;BME280;34317;51.660;5.824;2023-06-22T05:36:23;101709.00;;;23.38;54.70
48527;BME280;34317;51.660;5.824;2023-06-22T05:38:53;101715.31;;;23.48;54.60
48527;BME280;34317;51.660;5.824;2023-06-22T05:41:20;101723.34;;;23.60;54.67
48527;BME280;34317;51.660;5.824;2023-06-22T05:43:47;101727.97;;;23.69;54.41
48527;BME280;34317;51.660;5.824;2023-06-22T05:46:14;101723.75;;;23.76;54.35
48527;BME280;34317;51.660;5.824;2023-06-22T05:48:42;101712.41;;;23.82;54.08
48527;BME280;34317;51.660;5.824;2023-06-22T05:51:09;101703.03;;;23.86;53.99
48527;BME280;34317;51.660;5.824;2023-06-22T05:53:36;101704.50;;;23.90;54.15
48527;BME280;34317;51.660;5.824;2023-06-22T05:56:03;101698.91;;;23.92;54.16
48527;BME280;34317;51.660;5.824;2023-06-22T05:58:31;101705.94;;;23.95;53.94
48527;BME280;34317;51.660;5.824;2023-06-22T06:00:58;101705.63;;;23.98;54.01
48527;BME280;34317;51.660;5.824;2023-06-22T06:03:25;101714.22;;;24.03;53.83
48527;BME280;34317;51.660;5.824;2023-06-22T06:05:55;101717.38;;;24.08;53.78
48527;BME280;34317;51.660;5.824;2023-06-22T06:08:23;101718.81;;;24.12;53.98
48527;BME280;34317;51.660;5.824;2023-06-22T06:10:50;101716.28;;;24.20;53.79
48527;BME280;34317;51.660;5.824;2023-06-22T06:13:19;101718.59;;;24.25;53.54
48527;BME280;34317;51.660;5.824;2023-06-22T06:15:47;101711.75;;;24.31;53.34
48527;BME280;34317;51.660;5.824;2023-06-22T06:18:17;101704.09;;;24.36;53.39
48527;BME280;34317;51.660;5.824;2023-06-22T06:20:44;101698.38;;;24.39;53.13
48527;BME280;34317;51.660;5.824;2023-06-22T06:23:11;101700.09;;;24.40;53.04
48527;BME280;34317;51.660;5.824;2023-06-22T06:25:38;101706.97;;;24.44;53.26
48527;BME280;34317;51.660;5.824;2023-06-22T06:28:06;101709.41;;;24.47;53.07
48527;BME280;34317;51.660;5.824;2023-06-22T06:30:33;101699.41;;;24.47;52.99
48527;BME280;34317;51.660;5.824;2023-06-22T06:33:00;101698.25;;;24.50;53.01
48527;BME280;34317;51.660;5.824;2023-06-22T06:35:27;101697.03;;;24.54;53.01
48527;BME280;34317;51.660;5.824;2023-06-22T06:37:55;101701.19;;;24.58;53.17
48527;BME280;34317;51.660;5.824;2023-06-22T06:40:22;101693.59;;;24.62;52.96
48527;BME280;34317;51.660;5.824;2023-06-22T06:42:49;101700.47;;;24.66;53.01
48527;BME280;34317;51.660;5.824;2023-06-22T06:45:19;101692.63;;;24.73;53.08
48527;BME280;34317;51.660;5.824;2023-06-22T06:47:47;101694.75;;;24.79;52.87
48527;BME280;34317;51.660;5.824;2023-06-22T06:50:14;101694.22;;;24.85;52.66
48527;BME280;34317;51.660;5.824;2023-06-22T06:52:41;101692.81;;;24.91;52.47
48527;BME280;34317;51.660;5.824;2023-06-22T06:55:09;101695.19;;;24.94;52.64
48527;BME280;34317;51.660;5.824;2023-06-22T06:57:40;101697.78;;;24.95;52.37
48527;BME280;34317;51.660;5.824;2023-06-22T07:00:12;101697.50;;;24.98;52.39
48527;BME280;34317;51.660;5.824;2023-06-22T07:02:43;101698.22;;;25.00;52.44
48527;BME280;34317;51.660;5.824;2023-06-22T07:05:11;101683.66;;;25.01;52.30
48527;BME280;34317;51.660;5.824;2023-06-22T07:07:39;101688.22;;;25.01;52.49
48527;BME280;34317;51.660;5.824;2023-06-22T07:10:06;101679.94;;;25.02;52.40
48527;BME280;34317;51.660;5.824;2023-06-22T07:12:34;101681.69;;;25.03;52.53
48527;BME280;34317;51.660;5.824;2023-06-22T07:15:05;101674.53;;;25.02;52.28
48527;BME280;34317;51.660;5.824;2023-06-22T07:17:35;101677.09;;;25.04;52.63
48527;BME280;34317;51.660;5.824;2023-06-22T07:20:03;101666.84;;;25.08;52.41
48527;BME280;34317;51.660;5.824;2023-06-22T07:22:36;101662.81;;;25.12;52.43
48527;BME280;34317;51.660;5.824;2023-06-22T07:25:04;101673.41;;;25.15;52.59
48527;BME280;34317;51.660;5.824;2023-06-22T07:27:37;101660.81;;;25.14;52.32
48527;BME280;34317;51.660;5.824;2023-06-22T07:30:05;101663.69;;;25.12;52.28
48527;BME280;34317;51.660;5.824;2023-06-22T07:32:32;101661.09;;;25.11;52.16
48527;BME280;34317;51.660;5.824;2023-06-22T07:34:59;101662.81;;;25.12;52.47
48527;BME280;34317;51.660;5.824;2023-06-22T07:37:30;101655.41;;;25.14;52.22
48527;BME280;34317;51.660;5.824;2023-06-22T07:39:57;101664.25;;;25.16;52.56
48527;BME280;34317;51.660;5.824;2023-06-22T07:42:27;101666.69;;;25.19;52.55
48527;BME280;34317;51.660;5.824;2023-06-22T07:45:00;101654.56;;;25.23;52.20
48527;BME280;34317;51.660;5.824;2023-06-22T07:47:27;101665.84;;;25.28;52.46
48527;BME280;34317;51.660;5.824;2023-06-22T07:49:58;101655.41;;;25.33;52.28
48527;BME280;34317;51.660;5.824;2023-06-22T07:52:28;101656.53;;;25.40;52.39
48527;BME280;34317;51.660;5.824;2023-06-22T07:54:56;101661.34;;;25.47;52.40
48527;BME280;34317;51.660;5.824;2023-06-22T07:57:23;101660.78;;;25.53;52.25
48527;BME280;34317;51.660;5.824;2023-06-22T08:00:04;101640.22;;;25.60;52.04
48527;BME280;34317;51.660;5.824;2023-06-22T08:02:41;101636.75;;;25.68;51.65
48527;BME280;34317;51.660;5.824;2023-06-22T08:05:09;101634.97;;;25.76;51.53
48527;BME280;34317;51.660;5.824;2023-06-22T08:07:49;101613.41;;;25.84;51.53
48527;BME280;34317;51.660;5.824;2023-06-22T08:10:17;101607.09;;;25.94;51.45
48527;BME280;34317;51.660;5.824;2023-06-22T08:12:44;101605.16;;;26.04;51.72
48527;BME280;34317;51.660;5.824;2023-06-22T08:15:11;101605.94;;;26.14;51.30
48527;BME280;34317;51.660;5.824;2023-06-22T08:17:38;101602.50;;;26.22;50.77
48527;BME280;34317;51.660;5.824;2023-06-22T08:20:07;101611.91;;;26.28;50.58
48527;BME280;34317;51.660;5.824;2023-06-22T08:22:42;101605.16;;;26.32;50.92
48527;BME280;34317;51.660;5.824;2023-06-22T08:25:11;101596.06;;;26.41;50.79
48527;BME280;34317;51.660;5.824;2023-06-22T08:27:38;101590.56;;;26.51;50.90
48527;BME280;34317;51.660;5.824;2023-06-22T08:30:06;101596.22;;;26.57;50.96
48527;BME280;34317;51.660;5.824;2023-06-22T08:32:34;101587.50;;;26.64;50.95
48527;BME280;34317;51.660;5.824;2023-06-22T08:35:02;101589.56;;;26.70;50.07
48527;BME280;34317;51.660;5.824;2023-06-22T08:37:29;101586.38;;;26.74;50.28
48527;BME280;34317;51.660;5.824;2023-06-22T08:40:05;101580.47;;;26.79;49.88
48527;BME280;34317;51.660;5.824;2023-06-22T08:42:32;101584.56;;;26.83;49.55
48527;BME280;34317;51.660;5.824;2023-06-22T08:45:00;101578.84;;;26.86;49.67
48527;BME280;34317;51.660;5.824;2023-06-22T08:47:27;101571.03;;;26.91;49.47
48527;BME280;34317;51.660;5.824;2023-06-22T08:49:55;101570.44;;;26.97;49.50
48527;BME280;34317;51.660;5.824;2023-06-22T08:52:23;101575.53;;;27.00;49.01
48527;BME280;34317;51.660;5.824;2023-06-22T08:54:50;101576.91;;;27.05;49.37
48527;BME280;34317;51.660;5.824;2023-06-22T08:57:18;101567.09;;;27.12;49.10
48527;BME280;34317;51.660;5.824;2023-06-22T08:59:45;101569.03;;;27.19;49.33
48527;BME280;34317;51.660;5.824;2023-06-22T09:02:12;101565.53;;;27.27;48.71
48527;BME280;34317;51.660;5.824;2023-06-22T09:04:39;101561.50;;;27.31;48.73
48527;BME280;34317;51.660;5.824;2023-06-22T09:07:07;101559.47;;;27.33;48.83
48527;BME280;34317;51.660;5.824;2023-06-22T09:09:34;101560.84;;;27.37;48.31
48527;BME280;34317;51.660;5.824;2023-06-22T09:12:02;101557.97;;;27.39;48.15
48527;BME280;34317;51.660;5.824;2023-06-22T09:14:29;101561.53;;;27.40;48.17
48527;BME280;34317;51.660;5.824;2023-06-22T09:17:00;101562.22;;;27.42;48.10
48527;BME280;34317;51.660;5.824;2023-06-22T09:19:27;101560.19;;;27.44;48.72
48527;BME280;34317;51.660;5.824;2023-06-22T09:21:54;101556.47;;;27.45;47.87
48527;BME280;34317;51.660;5.824;2023-06-22T09:24:21;101559.19;;;27.45;48.13
48527;BME280;34317;51.660;5.824;2023-06-22T09:26:48;101553.06;;;27.43;48.07
48527;BME280;34317;51.660;5.824;2023-06-22T09:29:16;101554.75;;;27.44;48.09
48527;BME280;34317;51.660;5.824;2023-06-22T09:31:43;101550.13;;;27.44;48.18
48527;BME280;34317;51.660;5.824;2023-06-22T09:34:11;101553.91;;;27.43;48.07
48527;BME280;34317;51.660;5.824;2023-06-22T09:36:38;101547.94;;;27.40;47.85
48527;BME280;34317;51.660;5.824;2023-06-22T09:39:07;101560.84;;;27.37;47.74
48527;BME280;34317;51.660;5.824;2023-06-22T09:41:34;101562.88;;;27.35;47.94
48527;BME280;34317;51.660;5.824;2023-06-22T09:44:02;101557.75;;;27.32;47.64
48527;BME280;34317;51.660;5.824;2023-06-22T09:46:29;101553.66;;;27.28;47.67
48527;BME280;34317;51.660;5.824;2023-06-22T09:48:56;101554.97;;;27.24;47.39
48527;BME280;34317;51.660;5.824;2023-06-22T09:51:23;101559.00;;;27.20;46.95
48527;BME280;34317;51.660;5.824;2023-06-22T09:53:51;101555.22;;;27.13;47.07
48527;BME280;34317;51.660;5.824;2023-06-22T09:56:19;101551.97;;;27.09;47.23
48527;BME280;34317;51.660;5.824;2023-06-22T09:58:47;101547.69;;;27.07;47.07
48527;BME280;34317;51.660;5.824;2023-06-22T10:01:14;101545.16;;;27.05;46.70
48527;BME280;34317;51.660;5.824;2023-06-22T10:03:41;101540.88;;;27.03;46.71
48527;BME280;34317;51.660;5.824;2023-06-22T10:06:09;101544.94;;;26.98;47.09
48527;BME280;34317;51.660;5.824;2023-06-22T10:08:36;101542.69;;;26.94;46.75
48527;BME280;34317;51.660;5.824;2023-06-22T10:11:03;101543.84;;;26.91;46.97
48527;BME280;34317;51.660;5.824;2023-06-22T10:13:31;101551.31;;;26.89;47.16
48527;BME280;34317;51.660;5.824;2023-06-22T10:15:58;101547.91;;;26.87;47.36
48527;BME280;34317;51.660;5.824;2023-06-22T10:18:25;101546.22;;;26.86;47.31
48527;BME280;34317;51.660;5.824;2023-06-22T10:20:52;101543.50;;;26.86;47.76
48527;BME280;34317;51.660;5.824;2023-06-22T10:23:20;101537.03;;;26.87;47.66
48527;BME280;34317;51.660;5.824;2023-06-22T10:25:47;101537.03;;;26.87;48.05
48527;BME280;34317;51.660;5.824;2023-06-22T10:28:15;101526.47;;;26.84;47.80
48527;BME280;34317;51.660;5.824;2023-06-22T10:30:42;101526.47;;;26.84;48.27
48527;BME280;34317;51.660;5.824;2023-06-22T10:33:11;101519.34;;;26.83;47.87
48527;BME280;34317;51.660;5.824;2023-06-22T10:35:38;101518.66;;;26.81;47.81
48527;BME280;34317;51.660;5.824;2023-06-22T10:38:06;101516.25;;;26.78;48.13
48527;BME280;34317;51.660;5.824;2023-06-22T10:40:33;101519.66;;;26.80;48.18
48527;BME280;34317;51.660;5.824;2023-06-22T10:43:01;101512.53;;;26.79;48.10
48527;BME280;34317;51.660;5.824;2023-06-22T10:45:28;101507.09;;;26.79;48.28
48527;BME280;34317;51.660;5.824;2023-06-22T10:47:56;101517.97;;;26.79;48.29
48527;BME280;34317;51.660;5.824;2023-06-22T10:50:24;101518.81;;;26.79;48.12
48527;BME280;34317;51.660;5.824;2023-06-22T10:52:53;101517.97;;;26.79;48.04
48527;BME280;34317;51.660;5.824;2023-06-22T10:55:23;101517.97;;;26.79;48.17
48527;BME280;34317;51.660;5.824;2023-06-22T10:57:50;101524.25;;;26.79;47.99
48527;BME280;34317;51.660;5.824;2023-06-22T11:00:17;101530.53;;;26.80;48.02
48527;BME280;34317;51.660;5.824;2023-06-22T11:02:44;101536.84;;;26.80;47.96
48527;BME280;34317;51.660;5.824;2023-06-22T11:05:12;101546.84;;;26.80;47.93
48527;BME280;34317;51.660;5.824;2023-06-22T11:07:43;101558.72;;;26.79;47.80
48527;BME280;34317;51.660;5.824;2023-06-22T11:10:12;101566.19;;;26.77;47.70
48527;BME280;34317;51.660;5.824;2023-06-22T11:12:39;101570.59;;;26.78;48.22
48527;BME280;34317;51.660;5.824;2023-06-22T11:15:07;101570.59;;;26.78;49.12
48527;BME280;34317;51.660;5.824;2023-06-22T11:17:35;101576.03;;;26.78;49.20
48527;BME280;34317;51.660;5.824;2023-06-22T11:20:02;101576.38;;;26.75;50.02
48527;BME280;34317;51.660;5.824;2023-06-22T11:22:40;101576.69;;;26.72;49.95
48527;BME280;34317;51.660;5.824;2023-06-22T11:25:08;101578.16;;;26.66;50.11
48527;BME280;34317;51.660;5.824;2023-06-22T11:27:35;101577.91;;;26.59;50.76
48527;BME280;34317;51.660;5.824;2023-06-22T11:30:03;101582.25;;;26.52;51.15
48527;BME280;34317;51.660;5.824;2023-06-22T11:32:30;101584.88;;;26.44;51.13
48527;BME280;34317;51.660;5.824;2023-06-22T11:34:58;101583.78;;;26.37;51.49
48527;BME280;34317;51.660;5.824;2023-06-22T11:37:25;101580.69;;;26.32;52.01
48527;BME280;34317;51.660;5.824;2023-06-22T11:39:53;101583.03;;;26.27;51.87
48527;BME280;34317;51.660;5.824;2023-06-22T11:42:33;101579.91;;;26.21;51.98
48527;BME280;34317;51.660;5.824;2023-06-22T11:45:01;101577.09;;;26.13;51.63
48527;BME280;34317;51.660;5.824;2023-06-22T11:47:29;101578.31;;;26.01;51.76
48527;BME280;34317;51.660;5.824;2023-06-22T11:49:56;101576.09;;;25.87;52.20
48527;BME280;34317;51.660;5.824;2023-06-22T11:52:24;101581.31;;;25.70;52.75
48527;BME280;34317;51.660;5.824;2023-06-22T11:54:51;101593.69;;;25.55;52.95
48527;BME280;34317;51.660;5.824;2023-06-22T11:57:18;101589.56;;;25.41;52.98
48527;BME280;34317;51.660;5.824;2023-06-22T11:59:45;101570.94;;;25.28;53.29
48527;BME280;34317;51.660;5.824;2023-06-22T12:02:12;101564.94;;;25.15;53.75
48527;BME280;34317;51.660;5.824;2023-06-22T12:04:39;101560.69;;;25.02;53.67
48527;BME280;34317;51.660;5.824;2023-06-22T12:07:06;101541.88;;;24.91;54.05
48527;BME280;34317;51.660;5.824;2023-06-22T12:09:33;101526.78;;;24.79;54.62
48527;BME280;34317;51.660;5.824;2023-06-22T12:12:01;101511.56;;;24.68;54.79
48527;BME280;34317;51.660;5.824;2023-06-22T12:14:28;101486.47;;;24.56;55.20
48527;BME280;34317;51.660;5.824;2023-06-22T12:16:57;101474.91;;;24.44;55.25
48527;BME280;34317;51.660;5.824;2023-06-22T12:19:24;101469.50;;;24.35;55.96
48527;BME280;34317;51.660;5.824;2023-06-22T12:21:51;101484.94;;;24.24;56.14
48527;BME280;34317;51.660;5.824;2023-06-22T12:24:19;101498.28;;;24.16;56.71
48527;BME280;34317;51.660;5.824;2023-06-22T12:26:46;101491.72;;;24.09;56.74
48527;BME280;34317;51.660;5.824;2023-06-22T12:29:13;101483.22;;;24.04;57.21
48527;BME280;34317;51.660;5.824;2023-06-22T12:31:40;101474.38;;;24.02;57.33
48527;BME280;34317;51.660;5.824;2023-06-22T12:34:08;101482.50;;;24.02;57.55
48527;BME280;34317;51.660;5.824;2023-06-22T12:36:35;101485.19;;;24.02;57.66
48527;BME280;34317;51.660;5.824;2023-06-22T12:39:03;101481.63;;;24.01;57.99
48527;BME280;34317;51.660;5.824;2023-06-22T12:41:30;101485.19;;;24.02;58.25
48527;BME280;34317;51.660;5.824;2023-06-22T12:43:57;101487.75;;;24.03;58.13
48527;BME280;34317;51.660;5.824;2023-06-22T12:46:24;101483.22;;;24.04;58.03
48527;BME280;34317;51.660;5.824;2023-06-22T12:48:51;101481.22;;;24.06;58.11
48527;BME280;34317;51.660;5.824;2023-06-22T12:51:22;101470.53;;;24.04;58.53
48527;BME280;34317;51.660;5.824;2023-06-22T12:53:49;101461.56;;;24.04;58.50
48527;BME280;34317;51.660;5.824;2023-06-22T12:56:17;101462.53;;;24.03;58.51
48527;BME280;34317;51.660;5.824;2023-06-22T12:58:44;101461.56;;;24.04;58.60
48527;BME280;34317;51.660;5.824;2023-06-22T13:01:11;101456.16;;;24.04;58.90